Hopewell Township, New Jersey
Current Conditions -  °F | °C
As of 2:53 AM on Saturday 20 Dec 2014 (Local Time) from KTTN Reporting Station
Overcast Overcast  
Wind Chill: -3°   Ceiling: 2400
Heat Index:   Visibility: 10mi
Dew Point: -6°   Wind: 5mph
Humidity: 64%   Direction: 360°N
Pressure: 30.21"   Gusts: NA
Location:  40.3975°N, 74.7746°W
Report Text: KTTN 200753Z AUTO 36004KT 10SM OVC024 00/M06 A3021 RMK AO2 SLP226 T00001061
Loading
Personal Weather Stations






























Interactive Weather Map New forecast layout! Learn more

10-Day Weather Forecast

Advertisements
Track Severe Weather on mobile